Flight Track Log - Related Links

Times and Time Zones

All times are in EDT time to prevent confusion due to time zone crossing. See the AFR1529 flight status page for this flight to view local times or setup timezone preferences in your user account.

Time Position Orientation Groundspeed Altitude Reporting Facility
EDT Latitude Longitude Course Direction KTS MPH feet Rate Location/Type
Sun 06:34:00 AM 44.5948 11.1895 310° West  Level Estimated
Sun 06:35:00 AM 44.6547 11.0887 310° West  Level Estimated
Sun 06:36:00 AM 44.7144 10.9876 310° West  Level Estimated
Sun 06:37:00 AM 44.7741 10.8864 310° West  Level Estimated
Sun 06:38:00 AM 44.8337 10.7850 310° West  Level Estimated
Sun 06:39:00 AM 44.8931 10.6833 310° West  Level Estimated
Sun 06:40:00 AM 44.9525 10.5814 310° West  Level Estimated
Sun 06:41:00 AM 45.0118 10.4794 309° West  Level Estimated
Sun 06:42:00 AM 45.0710 10.3771 309° West  Level Estimated
Sun 06:43:00 AM 45.1301 10.2746 309° West  Level Estimated
Sun 06:44:00 AM 45.1892 10.1718 309° West  Level Estimated
Sun 06:45:00 AM 45.2481 10.0689 309° West  Level Estimated
Sun 06:46:00 AM 45.3069 9.9657 309° West  Level Estimated
Sun 06:47:00 AM 45.3657 9.8624 309° West  Level Estimated
Sun 06:48:00 AM 45.4243 9.7588 309° West  Level Estimated
Sun 06:49:00 AM 45.4829 9.6550 309° West  Level Estimated
Sun 06:50:00 AM 45.5413 9.5510 309° West  Level Estimated
Sun 06:51:00 AM 45.5997 9.4468 309° West  Level Estimated
Sun 06:52:00 AM 45.6580 9.3424 309° West  Level Estimated
Sun 06:53:00 AM 45.7147 9.2403 309° West  Level Estimated
Sun 06:54:00 AM 45.7714 9.1379 308° West  Level Estimated
Sun 06:55:00 AM 45.8280 9.0354 308° West  Level Estimated
Sun 06:56:00 AM 45.8845 8.9327 308° West  Level Estimated
Sun 06:57:00 AM 45.9409 8.8298 308° West  Level Estimated
Sun 06:58:00 AM 45.9972 8.7266 308° West  Level Estimated
Sun 06:59:00 AM 46.0534 8.6233 308° West  Level Estimated
Sun 07:00:00 AM 46.1095 8.5197 308° West  Level Estimated
Sun 07:01:00 AM 46.1655 8.4160 308° West  Level Estimated
Sun 07:02:00 AM 46.2214 8.3120 308° West  Level Estimated
Sun 07:03:00 AM 46.2773 8.2078 308° West  Level Estimated
Sun 07:04:00 AM 46.3330 8.1034 308° West  Level Estimated
Sun 07:05:00 AM 46.3886 7.9987 308° West  Level Estimated
Sun 07:06:00 AM 46.4442 7.8939 308° West  Level Estimated
Sun 07:07:00 AM 46.4996 7.7888 308° West  Level Estimated
Sun 07:08:00 AM 46.5550 7.6836 307° West  Level Estimated
Sun 07:09:00 AM 46.6102 7.5781 307° West  Level Estimated
Sun 07:10:00 AM 46.6654 7.4724 307° West  Level Estimated
Sun 07:11:00 AM 46.7205 7.3665 307° West  Level Estimated
Sun 07:12:00 AM 46.7754 7.2604 307° West  Level Estimated
Sun 07:13:00 AM 46.8303 7.1540 307° West  Level Estimated
Sun 07:14:00 AM 46.8851 7.0475 307° West  Level Estimated
Sun 07:15:00 AM 46.9397 6.9407 307° West  Level Estimated
Sun 07:16:00 AM 46.9943 6.8337 307° West  Level Estimated
Sun 07:17:00 AM 47.0488 6.7265 307° West  Level Estimated
Sun 07:18:00 AM 47.1031 6.6191 307° West  Level Estimated
Sun 07:19:00 AM 47.1574 6.5114 307° West  Level Estimated
Sun 07:20:00 AM 47.2116 6.4035 306° West  Level Estimated
Sun 07:21:00 AM 47.2657 6.2955 306° West  Level Estimated
Sun 07:22:00 AM 47.3196 6.1871 306° West  Level Estimated
Sun 07:23:00 AM 47.3735 6.0786 306° West  Level Estimated
Sun 07:24:00 AM 47.4259 5.9724 306° West  Level Estimated
Sun 07:25:00 AM 47.4783 5.8660 306° West  Level Estimated
Sun 07:26:00 AM 47.5306 5.7595 306° West  Level Estimated
Sun 07:27:00 AM 47.5828 5.6527 306° West  Level Estimated
Sun 07:28:00 AM 47.6349 5.5457 306° West  Level Estimated
Sun 07:29:00 AM 47.6869 5.4384 306° West  Level Estimated
Sun 07:30:00 AM 47.7387 5.3310 306° West  Level Estimated
Sun 07:31:00 AM 47.7905 5.2233 306° West  Level Estimated
Sun 07:32:00 AM 47.8422 5.1154 306° West  Level Estimated
Sun 07:33:00 AM 47.8938 5.0074 305° West  Level Estimated
Sun 07:34:00 AM 47.9453 4.8991 305° West  Level Estimated
Sun 07:35:00 AM 47.9966 4.7906 305° West  Level Estimated
Sun 07:36:00 AM 48.0479 4.6818 305° West  Level Estimated
Sun 07:37:00 AM 48.0991 4.5729 305° West  Level Estimated
Sun 07:38:00 AM 48.1502 4.4637 305° West  Level Estimated
Sun 07:39:00 AM 48.2011 4.3543 305° West  Level Estimated
Sun 07:40:00 AM 48.2520 4.2447 305° West  Level Estimated
Sun 07:41:00 AM 48.3027 4.1349 305° West  Level Estimated
Sun 07:42:00 AM 48.3534 4.0249 305° West  Level Estimated
Sun 07:43:00 AM 48.4039 3.9146 305° West  Level Estimated
Sun 07:44:00 AM 48.4544 3.8042 305° West  Level Estimated
Sun 07:45:00 AM 48.5047 3.6935 304° West  Level Estimated
Sun 07:46:00 AM 48.5550 3.5826 304° West  Level Estimated
Sun 07:47:00 AM 48.6051 3.4714 304° West  Level Estimated
Sun 07:48:00 AM 48.6551 3.3601 304° West  Level Estimated
Sun 07:49:00 AM 48.7050 3.2485 304° West  Level Estimated
Sun 07:50:00 AM 48.7548 3.1367 304° West  Level Estimated
Sun 07:51:00 AM 48.8045 3.0247 304° West  Level Estimated
Sun 07:52:00 AM 48.8541 2.9124 304° West  Level Estimated
Sun 07:53:00 AM 48.9013 2.8051 304° West  Level Estimated
Sun 07:54:00 AM 48.9484 2.6975 304° West  Level Estimated
Sun 07:55:00 AM 48.9955 2.5898 304° West  Level Estimated
Sun 07:56:00 AM 49.0128 2.5500 304° West  Level Estimated
Sun 07:57:00 AM 49.0128 2.5500 180° South  Level Estimated
Sun 07:58:00 AM 49.0128 2.5500 180° South  Level Estimated
Sun 07:59:00 AM 49.0128 2.5500 180° South  Level Estimated
Sun 08:00:00 AM 49.0128 2.5500 180° South  Level Estimated

Login

Don't have an account? Register now (free) for customized features, flight alerts, and more!